Aviation Digital Data Service (ADDS)

Output produced by METARs form (0922 UTC 19 December 2014)
found at http://aviationweather.gov/adds/metars/
 
KVQQ 190524Z 1906/2006 00000KT P6SM SCT150 BKN250 
     FM190800 00000KT 5SM BR SCT040 BKN200 
     FM191300 04003KT P6SM SCT040 BKN200